Time;durP1;ratioP1;P1;durP2;ratioP2;P2;SDS_P1;SDS_P2;PMS_P1;PMS_P2;Temp;Humidity;BMP_temperature;BMP_pressure;BME280_temperature;BME280_humidity;BME280_pressure;Samples;Min_cycle;Max_cycle;Signal;HPM_P1;HPM_P2
2024/02/22 00:02:08;;;;;;;7.57;2.95;;;;;;;;;;7406225;19;19918;-78
2024/02/22 00:04:52;;;;;;;5.55;2.50;;;;;;;;;;7406810;19;19961;-78
2024/02/22 00:07:36;;;;;;;5.43;2.67;;;;;;;;;;7403622;19;20257;-78
2024/02/22 00:10:23;;;;;;;4.32;2.30;;;;;;;;;;7404475;19;19922;-78
2024/02/22 00:13:10;;;;;;;5.57;3.08;;;;;;;;;;7405014;19;19923;-78
2024/02/22 00:15:57;;;;;;;7.18;3.50;;;;;;;;;;7405861;19;19926;-78
2024/02/22 00:18:46;;;;;;;5.85;3.63;;;;;;;;;;7406717;19;19923;-77
2024/02/22 00:21:33;;;;;;;7.18;4.05;;;;;;;;;;7406090;19;19936;-77
2024/02/22 00:24:17;;;;;;;7.55;3.55;;;;;;;;;;7406434;19;20360;-77
2024/02/22 00:27:03;;;;;;;7.15;3.50;;;;;;;;;;7404848;19;19982;-77
2024/02/22 00:29:47;;;;;;;5.63;3.33;;;;;;;;;;7405199;19;19945;-77
2024/02/22 00:32:33;;;;;;;3.83;2.50;;;;;;;;;;7406277;19;20261;-77
2024/02/22 00:35:22;;;;;;;4.88;2.20;;;;;;;;;;7404282;19;19926;-77
2024/02/22 00:38:06;;;;;;;2.80;1.73;;;;;;;;;;7407111;19;20246;-77
2024/02/22 00:40:53;;;;;;;3.70;2.40;;;;;;;;;;7408069;19;19910;-77
2024/02/22 00:43:37;;;;;;;3.00;1.83;;;;;;;;;;7404798;19;19930;-77
2024/02/22 00:46:21;;;;;;;3.85;1.98;;;;;;;;;;7405206;19;19918;-77
2024/02/22 00:49:10;;;;;;;2.95;1.40;;;;;;;;;;7407412;19;19915;-77
2024/02/22 00:51:59;;;;;;;3.45;2.08;;;;;;;;;;7406377;19;19910;-77
2024/02/22 00:54:48;;;;;;;3.58;1.85;;;;;;;;;;7404650;19;20346;-77
2024/02/22 00:57:32;;;;;;;2.78;1.58;;;;;;;;;;7403953;19;19929;-78
2024/02/22 01:00:18;;;;;;;3.80;1.67;;;;;;;;;;7404171;19;19923;-78
2024/02/22 01:03:06;;;;;;;2.58;1.77;;;;;;;;;;7406150;19;19941;-78
2024/02/22 01:05:50;;;;;;;3.55;1.48;;;;;;;;;;7404428;19;20373;-78
2024/02/22 01:08:41;;;;;;;3.60;1.58;;;;;;;;;;7406134;19;20016;-78
2024/02/22 01:11:28;;;;;;;2.95;1.70;;;;;;;;;;7402763;19;19937;-78
2024/02/22 01:14:19;;;;;;;3.60;1.80;;;;;;;;;;7402425;19;20340;-78
2024/02/22 01:17:08;;;;;;;5.22;1.52;;;;;;;;;;7404763;19;19918;-78
2024/02/22 01:19:55;;;;;;;2.92;1.58;;;;;;;;;;7406427;19;19925;-78
2024/02/22 01:22:42;;;;;;;3.28;2.03;;;;;;;;;;7405299;19;19922;-78
2024/02/22 01:25:29;;;;;;;2.22;1.33;;;;;;;;;;7402113;19;20332;-78
2024/02/22 01:28:16;;;;;;;2.78;1.40;;;;;;;;;;7404266;19;19952;-78
2024/02/22 01:31:03;;;;;;;2.05;1.38;;;;;;;;;;7403328;19;19915;-78
2024/02/22 01:33:50;;;;;;;3.38;1.63;;;;;;;;;;7405026;19;19937;-78
2024/02/22 01:36:37;;;;;;;3.17;1.90;;;;;;;;;;7402024;19;19915;-78
2024/02/22 01:39:23;;;;;;;2.42;1.40;;;;;;;;;;7404931;19;20341;-78
2024/02/22 01:42:12;;;;;;;5.65;1.70;;;;;;;;;;7404413;19;20592;-78
2024/02/22 01:45:05;;;;;;;4.47;1.85;;;;;;;;;;7402364;19;19918;-78
2024/02/22 01:47:52;;;;;;;2.78;1.35;;;;;;;;;;7403840;19;19978;-78
2024/02/22 01:50:36;;;;;;;2.58;1.60;;;;;;;;;;7402871;19;20329;-78
2024/02/22 01:53:27;;;;;;;1.85;1.50;;;;;;;;;;7405296;19;20333;-78
2024/02/22 01:56:13;;;;;;;2.65;1.70;;;;;;;;;;7402793;19;20424;-78
2024/02/22 01:59:03;;;;;;;5.43;1.58;;;;;;;;;;7404028;19;21142;-78
2024/02/22 02:01:53;;;;;;;2.05;1.48;;;;;;;;;;7403127;19;19919;-78
2024/02/22 02:04:37;;;;;;;2.58;1.58;;;;;;;;;;7404743;19;19926;-78
2024/02/22 02:07:24;;;;;;;2.35;1.23;;;;;;;;;;7404642;19;19919;-78
2024/02/22 02:10:11;;;;;;;4.88;1.50;;;;;;;;;;7410178;19;19931;-78
2024/02/22 02:13:04;;;;;;;3.22;1.85;;;;;;;;;;7410712;19;19914;-78
2024/02/22 02:15:53;;;;;;;3.30;1.45;;;;;;;;;;7410247;19;19978;-78
2024/02/22 02:18:37;;;;;;;3.50;1.40;;;;;;;;;;7411168;19;19922;-78
2024/02/22 02:21:29;;;;;;;2.95;1.48;;;;;;;;;;7409623;19;19919;-78
2024/02/22 02:24:22;;;;;;;2.33;1.42;;;;;;;;;;7409929;19;19918;-78
2024/02/22 02:27:12;;;;;;;2.95;1.70;;;;;;;;;;7408773;19;19954;-78
2024/02/22 02:29:58;;;;;;;3.25;1.77;;;;;;;;;;7409836;19;19941;-78
2024/02/22 02:32:45;;;;;;;3.20;1.35;;;;;;;;;;7407961;19;19919;-78
2024/02/22 02:35:37;;;;;;;3.25;1.50;;;;;;;;;;7406919;19;20329;-78
2024/02/22 02:38:23;;;;;;;2.50;1.67;;;;;;;;;;7405845;19;19939;-78
2024/02/22 02:41:10;;;;;;;3.35;1.90;;;;;;;;;;7409072;19;19911;-78
2024/02/22 02:44:00;;;;;;;1.75;1.25;;;;;;;;;;7410173;19;19919;-78
2024/02/22 02:46:44;;;;;;;2.53;1.48;;;;;;;;;;7408347;19;19934;-78
2024/02/22 02:49:28;;;;;;;3.00;1.60;;;;;;;;;;7409823;19;19915;-78
2024/02/22 02:52:12;;;;;;;2.45;1.42;;;;;;;;;;7405622;19;20257;-78
2024/02/22 02:55:02;;;;;;;2.28;1.30;;;;;;;;;;7409986;19;19941;-78
2024/02/22 02:57:49;;;;;;;2.45;1.45;;;;;;;;;;7407008;19;19925;-78
2024/02/22 03:00:39;;;;;;;3.63;1.48;;;;;;;;;;7406232;19;19922;-78
2024/02/22 03:03:27;;;;;;;2.30;1.45;;;;;;;;;;7409952;19;19914;-78
2024/02/22 03:06:12;;;;;;;1.85;1.35;;;;;;;;;;7406251;19;19936;-78
2024/02/22 03:08:58;;;;;;;3.53;1.25;;;;;;;;;;7408584;19;19926;-78
2024/02/22 03:11:43;;;;;;;2.17;1.45;;;;;;;;;;7408718;19;19929;-78
2024/02/22 03:14:29;;;;;;;2.70;1.38;;;;;;;;;;7409973;19;19914;-78
2024/02/22 03:17:16;;;;;;;2.25;1.20;;;;;;;;;;7406933;19;19918;-78
2024/02/22 03:20:05;;;;;;;2.17;0.95;;;;;;;;;;7407341;19;19939;-78
2024/02/22 03:22:57;;;;;;;1.90;0.98;;;;;;;;;;7409681;19;20383;-78
2024/02/22 03:25:44;;;;;;;3.50;1.00;;;;;;;;;;7407299;19;19940;-78
2024/02/22 03:28:28;;;;;;;2.50;0.90;;;;;;;;;;7407856;19;19922;-78
2024/02/22 03:31:12;;;;;;;2.15;1.30;;;;;;;;;;7404576;19;19919;-78
2024/02/22 03:34:02;;;;;;;2.00;1.13;;;;;;;;;;7409157;19;19926;-78
2024/02/22 03:36:48;;;;;;;2.17;1.33;;;;;;;;;;7406191;19;19937;-78
2024/02/22 03:39:37;;;;;;;1.88;1.10;;;;;;;;;;7408507;19;19926;-78
2024/02/22 03:42:24;;;;;;;2.17;1.08;;;;;;;;;;7407940;19;20013;-79
2024/02/22 03:45:12;;;;;;;1.73;1.00;;;;;;;;;;7407647;19;19907;-79
2024/02/22 03:47:56;;;;;;;2.38;1.20;;;;;;;;;;7415835;19;19926;-84
2024/02/22 03:50:48;;;;;;;2.03;0.90;;;;;;;;;;7422237;19;19915;-84
2024/02/22 03:53:37;;;;;;;3.45;0.95;;;;;;;;;;7422650;19;19931;-84
2024/02/22 03:56:23;;;;;;;1.92;1.05;;;;;;;;;;7421798;19;19918;-84
2024/02/22 03:59:08;;;;;;;2.17;1.08;;;;;;;;;;7423164;19;19922;-84
2024/02/22 04:01:52;;;;;;;1.83;0.90;;;;;;;;;;7420614;19;19982;-84
2024/02/22 04:04:39;;;;;;;4.00;1.08;;;;;;;;;;7421845;19;20578;-84
2024/02/22 04:07:28;;;;;;;2.33;1.00;;;;;;;;;;7419920;19;19979;-84
2024/02/22 04:10:14;;;;;;;2.00;0.73;;;;;;;;;;7422953;19;19926;-84
2024/02/22 04:13:03;;;;;;;3.35;1.17;;;;;;;;;;7421804;19;19910;-84
2024/02/22 04:15:50;;;;;;;2.20;0.98;;;;;;;;;;7421577;19;19918;-84
2024/02/22 04:18:34;;;;;;;0.95;0.80;;;;;;;;;;7422937;19;19991;-84
2024/02/22 04:21:21;;;;;;;1.27;0.90;;;;;;;;;;7420554;19;19921;-84
2024/02/22 04:24:08;;;;;;;1.92;0.98;;;;;;;;;;7423557;19;19907;-84
2024/02/22 04:26:55;;;;;;;1.13;0.80;;;;;;;;;;7424380;19;19987;-84
2024/02/22 04:29:39;;;;;;;1.85;0.95;;;;;;;;;;7422009;19;19944;-83
2024/02/22 04:32:23;;;;;;;0.98;0.70;;;;;;;;;;7416222;19;19922;-83
2024/02/22 04:35:13;;;;;;;1.42;0.80;;;;;;;;;;7422699;19;19917;-84
2024/02/22 04:38:02;;;;;;;1.00;0.50;;;;;;;;;;7422115;19;19963;-83
2024/02/22 04:40:49;;;;;;;1.20;0.77;;;;;;;;;;7421481;19;19919;-84
2024/02/22 04:43:33;;;;;;;2.17;1.10;;;;;;;;;;7422718;19;20363;-84
2024/02/22 04:46:20;;;;;;;1.58;0.80;;;;;;;;;;7422422;19;19919;-83
2024/02/22 04:49:09;;;;;;;2.08;0.90;;;;;;;;;;7424537;19;19998;-84
2024/02/22 04:51:53;;;;;;;1.95;0.80;;;;;;;;;;7418188;19;19917;-83
2024/02/22 04:54:38;;;;;;;1.67;0.85;;;;;;;;;;7424432;19;19923;-83
2024/02/22 04:57:27;;;;;;;2.58;0.80;;;;;;;;;;7420532;19;20265;-84
2024/02/22 05:00:12;;;;;;;1.92;1.00;;;;;;;;;;7421298;19;19911;-84
2024/02/22 05:02:59;;;;;;;1.85;0.80;;;;;;;;;;7421514;19;19952;-84
2024/02/22 05:05:46;;;;;;;2.53;0.93;;;;;;;;;;7425391;19;19966;-84
2024/02/22 05:08:38;;;;;;;1.33;0.70;;;;;;;;;;7421183;19;19933;-84
2024/02/22 05:11:24;;;;;;;1.10;0.63;;;;;;;;;;7421138;19;19923;-84
2024/02/22 05:14:11;;;;;;;1.88;0.73;;;;;;;;;;7421506;19;19919;-84
2024/02/22 05:16:55;;;;;;;1.58;0.90;;;;;;;;;;7420952;19;19928;-84
2024/02/22 05:19:42;;;;;;;2.05;0.90;;;;;;;;;;7419890;19;19923;-84
2024/02/22 05:22:31;;;;;;;1.17;0.70;;;;;;;;;;7419725;19;19941;-84
2024/02/22 05:25:25;;;;;;;1.23;0.60;;;;;;;;;;7421373;19;19922;-86
2024/02/22 05:28:10;;;;;;;2.80;0.95;;;;;;;;;;7418290;19;19951;-83
2024/02/22 05:31:00;;;;;;;2.38;1.02;;;;;;;;;;7421095;19;20023;-84
2024/02/22 05:33:46;;;;;;;1.10;0.70;;;;;;;;;;7423550;19;19923;-84
2024/02/22 05:36:32;;;;;;;1.35;0.80;;;;;;;;;;7424995;19;19930;-83
2024/02/22 05:39:17;;;;;;;2.28;0.98;;;;;;;;;;7423927;19;19917;-83
2024/02/22 05:42:03;;;;;;;3.90;0.80;;;;;;;;;;7426079;19;19941;-83
2024/02/22 05:44:48;;;;;;;1.88;0.98;;;;;;;;;;7427269;19;20641;-83
2024/02/22 05:47:39;;;;;;;1.17;0.70;;;;;;;;;;7424077;19;19922;-83
2024/02/22 05:50:26;;;;;;;0.82;0.60;;;;;;;;;;7425531;19;19918;-83
2024/02/22 05:53:13;;;;;;;6.15;0.80;;;;;;;;;;7425090;19;19923;-83
2024/02/22 05:55:59;;;;;;;0.80;0.70;;;;;;;;;;7422214;19;20312;-84
2024/02/22 05:58:55;;;;;;;2.38;1.15;;;;;;;;;;7422374;19;19940;-84
2024/02/22 06:01:44;;;;;;;1.67;0.80;;;;;;;;;;7415693;19;19922;-84
2024/02/22 06:04:30;;;;;;;2.28;1.00;;;;;;;;;;7422416;19;19935;-83
2024/02/22 06:07:15;;;;;;;0.98;0.75;;;;;;;;;;7421633;19;19966;-84
2024/02/22 06:10:03;;;;;;;3.50;0.90;;;;;;;;;;7421262;19;19929;-84
2024/02/22 06:12:48;;;;;;;2.40;0.75;;;;;;;;;;7417775;19;19918;-83
2024/02/22 06:15:32;;;;;;;1.80;1.13;;;;;;;;;;7419456;19;20319;-82
2024/02/22 06:18:19;;;;;;;1.17;0.77;;;;;;;;;;7407806;19;19923;-82
2024/02/22 06:21:10;;;;;;;2.55;1.02;;;;;;;;;;7419061;19;20265;-82
2024/02/22 06:23:58;;;;;;;1.30;0.75;;;;;;;;;;7418436;19;19907;-82
2024/02/22 06:26:46;;;;;;;1.83;1.08;;;;;;;;;;7418122;19;20522;-82
2024/02/22 06:29:43;;;;;;;2.47;1.10;;;;;;;;;;7421233;19;19914;-82
2024/02/22 06:32:30;;;;;;;1.50;0.75;;;;;;;;;;7413554;19;19918;-82
2024/02/22 06:35:21;;;;;;;2.33;0.77;;;;;;;;;;7420603;19;20262;-82
2024/02/22 06:38:10;;;;;;;0.93;0.70;;;;;;;;;;7416226;19;19925;-82
2024/02/22 06:40:58;;;;;;;2.53;1.10;;;;;;;;;;7419407;19;19915;-82
2024/02/22 06:43:47;;;;;;;4.80;1.20;;;;;;;;;;7417475;19;20324;-83
2024/02/22 06:46:33;;;;;;;2.47;1.02;;;;;;;;;;7419422;19;19922;-82
2024/02/22 06:49:23;;;;;;;0.73;0.55;;;;;;;;;;7418750;19;20009;-82
2024/02/22 06:52:09;;;;;;;1.58;0.93;;;;;;;;;;7419763;19;19919;-82
2024/02/22 06:54:56;;;;;;;2.17;0.75;;;;;;;;;;7417358;19;19925;-82
2024/02/22 06:57:44;;;;;;;2.88;0.88;;;;;;;;;;7417723;19;19919;-82
2024/02/22 07:00:32;;;;;;;1.85;0.77;;;;;;;;;;7425857;19;20067;-82
2024/02/22 07:03:19;;;;;;;1.73;1.20;;;;;;;;;;7427796;19;19910;-82
2024/02/22 07:06:06;;;;;;;1.33;0.85;;;;;;;;;;7419784;19;19934;-83
2024/02/22 07:08:53;;;;;;;2.05;0.85;;;;;;;;;;7418977;19;19918;-82
2024/02/22 07:11:42;;;;;;;4.22;0.90;;;;;;;;;;7415471;19;19926;-82
2024/02/22 07:14:31;;;;;;;1.42;0.80;;;;;;;;;;7420616;19;19914;-82
2024/02/22 07:17:21;;;;;;;3.28;1.10;;;;;;;;;;7417787;19;19922;-82
2024/02/22 07:20:08;;;;;;;2.35;1.27;;;;;;;;;;7418244;19;20366;-82
2024/02/22 07:22:57;;;;;;;4.57;1.00;;;;;;;;;;7419795;19;19933;-83
2024/02/22 07:25:46;;;;;;;1.40;0.90;;;;;;;;;;7420179;19;19919;-82
2024/02/22 07:28:39;;;;;;;1.38;0.70;;;;;;;;;;7417637;19;19919;-82
2024/02/22 07:31:23;;;;;;;1.77;0.93;;;;;;;;;;7418906;19;19910;-82
2024/02/22 07:34:12;;;;;;;1.30;0.95;;;;;;;;;;7419954;19;19922;-82
2024/02/22 07:36:58;;;;;;;1.83;0.80;;;;;;;;;;7417649;19;19922;-82
2024/02/22 07:39:45;;;;;;;3.42;0.70;;;;;;;;;;7420696;19;19923;-82
2024/02/22 07:42:33;;;;;;;1.30;0.90;;;;;;;;;;7418732;19;19914;-82
2024/02/22 07:45:28;;;;;;;2.13;0.90;;;;;;;;;;7419282;19;19926;-82
2024/02/22 07:48:16;;;;;;;1.20;0.68;;;;;;;;;;7414959;19;19922;-82
2024/02/22 07:51:02;;;;;;;1.48;0.70;;;;;;;;;;7418351;19;19915;-82
2024/02/22 07:53:47;;;;;;;1.08;0.60;;;;;;;;;;7417501;19;19967;-83
2024/02/22 07:56:33;;;;;;;1.00;0.70;;;;;;;;;;7414220;19;20441;-82
2024/02/22 07:59:20;;;;;;;1.40;0.80;;;;;;;;;;7415038;19;19921;-82
2024/02/22 08:02:07;;;;;;;1.77;0.65;;;;;;;;;;7415128;19;19914;-82
2024/02/22 08:04:51;;;;;;;1.52;0.65;;;;;;;;;;7413699;19;19955;-82
2024/02/22 08:07:35;;;;;;;1.05;0.60;;;;;;;;;;7414670;19;19919;-82
2024/02/22 08:10:22;;;;;;;0.77;0.63;;;;;;;;;;7416408;19;19926;-82
2024/02/22 08:13:06;;;;;;;1.92;0.80;;;;;;;;;;7416408;19;19925;-82
2024/02/22 08:15:53;;;;;;;1.08;0.60;;;;;;;;;;7413795;19;19922;-82
2024/02/22 08:18:41;;;;;;;1.98;0.63;;;;;;;;;;7414774;19;19947;-82
2024/02/22 08:21:25;;;;;;;0.88;0.47;;;;;;;;;;7423477;19;19919;-79
2024/02/22 08:24:10;;;;;;;0.57;0.43;;;;;;;;;;7425678;19;19922;-79
2024/02/22 08:26:54;;;;;;;0.50;0.40;;;;;;;;;;7422825;19;19910;-80
2024/02/22 08:29:39;;;;;;;1.13;0.60;;;;;;;;;;7423343;19;19925;-80
2024/02/22 08:32:23;;;;;;;1.05;0.60;;;;;;;;;;7408572;19;19925;-80
2024/02/22 08:35:13;;;;;;;2.42;0.85;;;;;;;;;;7405834;19;19925;-80
2024/02/22 08:38:00;;;;;;;0.70;0.50;;;;;;;;;;7410114;19;20337;-80
2024/02/22 08:40:47;;;;;;;0.90;0.40;;;;;;;;;;7409807;19;19910;-80
2024/02/22 08:43:31;;;;;;;1.60;0.55;;;;;;;;;;7413267;19;19989;-80
2024/02/22 08:46:16;;;;;;;1.02;0.60;;;;;;;;;;7405220;19;19930;-80
2024/02/22 08:49:00;;;;;;;0.82;0.50;;;;;;;;;;7418046;19;20002;-80
2024/02/22 08:51:49;;;;;;;1.38;0.60;;;;;;;;;;7420682;19;20284;-80
2024/02/22 08:54:36;;;;;;;0.35;0.35;;;;;;;;;;7427829;19;19926;-80
2024/02/22 08:57:22;;;;;;;1.98;0.80;;;;;;;;;;7418397;19;19926;-80
2024/02/22 09:00:10;;;;;;;0.50;0.30;;;;;;;;;;7426673;19;19922;-80
2024/02/22 09:02:54;;;;;;;0.32;0.30;;;;;;;;;;7426695;19;19915;-80
2024/02/22 09:05:41;;;;;;;1.05;0.80;;;;;;;;;;7426088;19;19918;-80
2024/02/22 09:08:31;;;;;;;0.70;0.55;;;;;;;;;;7420367;19;19918;-79
2024/02/22 09:11:15;;;;;;;2.72;1.23;;;;;;;;;;7403567;19;20360;-74
2024/02/22 09:14:00;;;;;;;5.38;1.30;;;;;;;;;;7401863;19;20284;-74
2024/02/22 09:16:47;;;;;;;1.02;0.77;;;;;;;;;;7400950;19;19911;-73
2024/02/22 09:19:31;;;;;;;1.48;1.10;;;;;;;;;;7404117;19;19943;-73
2024/02/22 09:22:16;;;;;;;1.95;1.20;;;;;;;;;;7401420;19;19986;-78
2024/02/22 09:25:06;;;;;;;1.20;0.70;;;;;;;;;;7415036;19;19910;-80
2024/02/22 09:27:53;;;;;;;0.63;0.50;;;;;;;;;;7410888;19;19929;-80
2024/02/22 09:30:42;;;;;;;1.17;0.88;;;;;;;;;;7413316;19;19918;-80
2024/02/22 09:33:27;;;;;;;1.58;0.90;;;;;;;;;;7412963;19;19919;-80
2024/02/22 09:36:12;;;;;;;1.75;0.85;;;;;;;;;;7414524;19;20373;-80
2024/02/22 09:38:58;;;;;;;0.63;0.40;;;;;;;;;;7412614;19;19922;-80
2024/02/22 09:41:46;;;;;;;1.23;0.60;;;;;;;;;;7414126;19;19923;-80
2024/02/22 09:44:34;;;;;;;1.27;0.60;;;;;;;;;;7413110;19;19914;-80
2024/02/22 09:47:21;;;;;;;0.80;0.50;;;;;;;;;;7406763;19;20317;-80
2024/02/22 09:50:09;;;;;;;1.73;0.50;;;;;;;;;;7406543;19;19915;-81
2024/02/22 09:52:58;;;;;;;0.80;0.50;;;;;;;;;;7407544;19;19922;-81
2024/02/22 09:55:43;;;;;;;0.77;0.60;;;;;;;;;;7408017;19;19918;-81
2024/02/22 09:58:32;;;;;;;0.93;0.57;;;;;;;;;;7407814;19;19929;-81
2024/02/22 10:01:19;;;;;;;1.33;0.63;;;;;;;;;;7404943;19;20349;-81
2024/02/22 10:04:11;;;;;;;0.60;0.30;;;;;;;;;;7409198;19;19918;-80
2024/02/22 10:07:02;;;;;;;0.60;0.40;;;;;;;;;;7406221;19;19919;-81
2024/02/22 10:09:49;;;;;;;1.10;0.43;;;;;;;;;;7406582;19;19914;-81
2024/02/22 10:12:43;;;;;;;1.17;0.68;;;;;;;;;;7406660;19;20115;-80
2024/02/22 10:15:33;;;;;;;1.10;0.63;;;;;;;;;;7405860;19;19915;-81
2024/02/22 10:18:28;;;;;;;0.80;0.50;;;;;;;;;;7403603;19;19941;-80
2024/02/22 10:21:17;;;;;;;1.33;0.90;;;;;;;;;;7403062;19;19981;-80
2024/02/22 10:24:04;;;;;;;0.70;0.38;;;;;;;;;;7407284;19;19914;-80
2024/02/22 10:26:51;;;;;;;0.85;0.40;;;;;;;;;;7407072;19;20022;-81
2024/02/22 10:29:38;;;;;;;0.30;0.20;;;;;;;;;;7411987;19;19915;-81
2024/02/22 10:32:27;;;;;;;0.73;0.40;;;;;;;;;;7410774;19;19970;-80
2024/02/22 10:35:15;;;;;;;1.65;1.10;;;;;;;;;;7415763;19;19918;-81
2024/02/22 10:38:05;;;;;;;0.90;0.52;;;;;;;;;;7411238;19;19922;-81
2024/02/22 10:40:55;;;;;;;0.70;0.30;;;;;;;;;;7415060;19;19941;-81
2024/02/22 10:43:42;;;;;;;2.40;1.58;;;;;;;;;;7416688;19;20364;-81
2024/02/22 10:46:30;;;;;;;3.35;1.80;;;;;;;;;;7418244;19;19921;-81
2024/02/22 10:49:20;;;;;;;3.65;2.13;;;;;;;;;;7415233;19;19919;-82
2024/02/22 10:52:09;;;;;;;0.60;0.47;;;;;;;;;;7414917;19;19918;-81
2024/02/22 10:54:57;;;;;;;2.33;1.20;;;;;;;;;;7415168;19;19918;-81
2024/02/22 10:57:46;;;;;;;1.48;1.08;;;;;;;;;;7412854;19;19919;-81
2024/02/22 11:00:35;;;;;;;1.30;0.40;;;;;;;;;;7411985;19;20837;-81
2024/02/22 11:03:25;;;;;;;1.15;0.30;;;;;;;;;;7408172;19;20006;-82
2024/02/22 11:06:15;;;;;;;0.75;0.57;;;;;;;;;;7413365;19;19923;-82
2024/02/22 11:09:04;;;;;;;0.60;0.43;;;;;;;;;;7413757;19;19918;-81
2024/02/22 11:11:51;;;;;;;0.45;0.30;;;;;;;;;;7414672;19;19917;-81
2024/02/22 11:14:40;;;;;;;1.88;1.05;;;;;;;;;;7411340;19;19910;-81
2024/02/22 11:17:26;;;;;;;0.80;0.40;;;;;;;;;;7416409;19;19932;-81
2024/02/22 11:20:12;;;;;;;1.75;0.47;;;;;;;;;;7414056;19;19926;-82
2024/02/22 11:22:58;;;;;;;0.57;0.40;;;;;;;;;;7418202;19;19997;-80
2024/02/22 11:25:43;;;;;;;1.27;0.68;;;;;;;;;;7414578;19;19923;-81
2024/02/22 11:28:30;;;;;;;0.22;0.20;;;;;;;;;;7415537;19;20329;-81
2024/02/22 11:31:14;;;;;;;1.08;0.40;;;;;;;;;;7413476;19;19918;-81
2024/02/22 11:34:04;;;;;;;2.08;0.43;;;;;;;;;;7411840;19;19910;-81
2024/02/22 11:36:53;;;;;;;1.42;0.40;;;;;;;;;;7410273;19;19919;-81
2024/02/22 11:39:42;;;;;;;1.23;0.40;;;;;;;;;;7412111;19;19936;-81
2024/02/22 11:42:30;;;;;;;0.40;0.17;;;;;;;;;;7412812;19;19930;-81
2024/02/22 11:45:19;;;;;;;1.75;0.35;;;;;;;;;;7413670;19;19910;-81
2024/02/22 11:48:08;;;;;;;0.88;0.40;;;;;;;;;;7413079;19;19918;-80
2024/02/22 11:50:55;;;;;;;0.60;0.30;;;;;;;;;;7412613;19;20338;-81
2024/02/22 11:53:41;;;;;;;0.35;0.22;;;;;;;;;;7412658;19;20269;-81
2024/02/22 11:56:29;;;;;;;0.50;0.28;;;;;;;;;;7411308;19;19914;-81
2024/02/22 11:59:16;;;;;;;1.60;0.30;;;;;;;;;;7413153;19;19918;-82
2024/02/22 12:02:01;;;;;;;0.30;0.20;;;;;;;;;;7411993;19;19950;-81
2024/02/22 12:04:50;;;;;;;0.35;0.20;;;;;;;;;;7411939;19;19922;-81
2024/02/22 12:07:39;;;;;;;0.25;0.20;;;;;;;;;;7410225;19;19918;-81
2024/02/22 12:10:28;;;;;;;1.05;0.30;;;;;;;;;;7412050;19;19930;-81
2024/02/22 12:13:17;;;;;;;0.17;0.17;;;;;;;;;;7412238;19;19927;-81
2024/02/22 12:16:08;;;;;;;3.58;1.90;;;;;;;;;;7411871;19;19915;-81
2024/02/22 12:18:53;;;;;;;0.82;0.40;;;;;;;;;;7410003;19;19926;-81
2024/02/22 12:21:41;;;;;;;0.50;0.43;;;;;;;;;;7412204;19;19915;-81
2024/02/22 12:24:29;;;;;;;1.23;0.55;;;;;;;;;;7412324;19;19968;-81
2024/02/22 12:27:17;;;;;;;0.88;0.47;;;;;;;;;;7410283;19;19915;-82
2024/02/22 12:30:10;;;;;;;2.65;0.77;;;;;;;;;;7409499;19;19919;-81
2024/02/22 12:32:56;;;;;;;2.55;0.70;;;;;;;;;;7412079;19;19906;-81
2024/02/22 12:35:45;;;;;;;0.73;0.30;;;;;;;;;;7407375;19;20385;-80
2024/02/22 12:38:32;;;;;;;0.63;0.30;;;;;;;;;;7409241;19;19926;-81
2024/02/22 12:41:17;;;;;;;0.35;0.25;;;;;;;;;;7410546;19;20264;-81
2024/02/22 12:44:01;;;;;;;0.40;0.40;;;;;;;;;;7410496;19;20333;-82
2024/02/22 12:46:48;;;;;;;0.30;0.30;;;;;;;;;;7408257;19;20442;-82
2024/02/22 12:49:38;;;;;;;0.82;0.60;;;;;;;;;;7408825;19;19921;-81
2024/02/22 12:52:22;;;;;;;0.90;0.50;;;;;;;;;;7407678;19;19967;-82
2024/02/22 12:55:09;;;;;;;1.20;0.70;;;;;;;;;;7410487;19;19944;-81
2024/02/22 12:57:54;;;;;;;0.80;0.50;;;;;;;;;;7408882;19;19929;-82
2024/02/22 13:00:38;;;;;;;0.80;0.50;;;;;;;;;;7408573;19;20272;-81
2024/02/22 13:03:30;;;;;;;0.80;0.50;;;;;;;;;;7411175;19;19918;-81
2024/02/22 13:06:15;;;;;;;1.52;0.60;;;;;;;;;;7409435;19;19919;-81
2024/02/22 13:09:01;;;;;;;0.50;0.32;;;;;;;;;;7410667;19;19915;-81
2024/02/22 13:11:51;;;;;;;0.77;0.50;;;;;;;;;;7406323;19;20063;-80
2024/02/22 13:14:35;;;;;;;0.85;0.43;;;;;;;;;;7408456;19;19923;-81
2024/02/22 13:17:22;;;;;;;1.00;0.55;;;;;;;;;;7405200;19;19918;-81
2024/02/22 13:20:12;;;;;;;0.98;0.70;;;;;;;;;;7408747;19;19915;-81
2024/02/22 13:22:57;;;;;;;0.98;0.57;;;;;;;;;;7408369;19;19926;-82
2024/02/22 13:25:43;;;;;;;1.45;0.70;;;;;;;;;;7407266;19;19926;-82
2024/02/22 13:28:30;;;;;;;0.85;0.50;;;;;;;;;;7407718;19;20360;-81
2024/02/22 13:31:14;;;;;;;1.10;0.70;;;;;;;;;;7408299;19;20333;-81
2024/02/22 13:33:59;;;;;;;2.65;0.70;;;;;;;;;;7408181;19;19915;-81
2024/02/22 13:36:45;;;;;;;0.88;0.50;;;;;;;;;;7405927;19;20246;-82
2024/02/22 13:39:35;;;;;;;0.50;0.40;;;;;;;;;;7409380;19;20005;-81
2024/02/22 13:42:24;;;;;;;0.65;0.50;;;;;;;;;;7407740;19;19910;-81
2024/02/22 13:45:10;;;;;;;1.75;0.50;;;;;;;;;;7407694;19;19919;-81
2024/02/22 13:47:55;;;;;;;0.73;0.55;;;;;;;;;;7405558;19;20239;-81
2024/02/22 13:50:39;;;;;;;0.88;0.60;;;;;;;;;;7407351;19;20034;-80
2024/02/22 13:53:26;;;;;;;1.63;0.60;;;;;;;;;;7407183;19;19959;-82
2024/02/22 13:56:15;;;;;;;1.55;0.60;;;;;;;;;;7410287;19;19915;-82
2024/02/22 13:59:04;;;;;;;1.08;0.70;;;;;;;;;;7405357;19;20333;-81
2024/02/22 14:01:51;;;;;;;0.98;0.40;;;;;;;;;;7403903;19;19910;-82
2024/02/22 14:04:39;;;;;;;1.60;0.70;;;;;;;;;;7412465;19;19937;-80
2024/02/22 14:07:23;;;;;;;1.30;0.70;;;;;;;;;;7411948;19;19911;-80
2024/02/22 14:10:11;;;;;;;1.05;0.40;;;;;;;;;;7416819;19;19902;-80
2024/02/22 14:12:58;;;;;;;0.98;0.70;;;;;;;;;;7415605;19;19914;-81
2024/02/22 14:15:43;;;;;;;1.42;0.77;;;;;;;;;;7411915;19;19935;-80
2024/02/22 14:18:30;;;;;;;1.80;1.00;;;;;;;;;;7410671;19;19922;-81
2024/02/22 14:21:20;;;;;;;1.20;0.60;;;;;;;;;;7410017;19;20252;-81
2024/02/22 14:24:05;;;;;;;1.30;0.80;;;;;;;;;;7411292;19;19919;-81
2024/02/22 14:26:52;;;;;;;1.92;0.70;;;;;;;;;;7411125;19;19938;-81
2024/02/22 14:29:37;;;;;;;2.05;0.85;;;;;;;;;;7411214;19;19937;-81
2024/02/22 14:32:23;;;;;;;1.35;0.80;;;;;;;;;;7411650;19;19935;-81
2024/02/22 14:35:13;;;;;;;1.30;0.65;;;;;;;;;;7410640;19;19918;-81
2024/02/22 14:37:57;;;;;;;2.15;0.70;;;;;;;;;;7409992;19;19921;-81
2024/02/22 14:40:42;;;;;;;1.45;0.70;;;;;;;;;;7414655;19;19922;-82
2024/02/22 14:43:32;;;;;;;1.60;0.85;;;;;;;;;;7414994;19;19955;-81
2024/02/22 14:46:16;;;;;;;1.05;0.70;;;;;;;;;;7414793;19;19933;-82
2024/02/22 14:49:00;;;;;;;1.20;0.60;;;;;;;;;;7414450;19;19926;-81
2024/02/22 14:51:47;;;;;;;0.82;0.70;;;;;;;;;;7414688;19;20257;-81
2024/02/22 14:54:35;;;;;;;0.85;0.68;;;;;;;;;;7415479;19;19923;-81
2024/02/22 14:57:23;;;;;;;1.35;0.70;;;;;;;;;;7414966;19;19921;-81
2024/02/22 15:00:14;;;;;;;1.67;0.95;;;;;;;;;;7417078;19;19914;-81
2024/02/22 15:03:01;;;;;;;2.30;0.93;;;;;;;;;;7413591;19;19918;-81
2024/02/22 15:05:48;;;;;;;1.17;0.77;;;;;;;;;;7416943;19;19910;-81
2024/02/22 15:08:35;;;;;;;0.70;0.50;;;;;;;;;;7414886;19;19926;-80
2024/02/22 15:11:21;;;;;;;2.97;0.80;;;;;;;;;;7413394;19;19925;-80
2024/02/22 15:14:05;;;;;;;1.98;0.90;;;;;;;;;;7413106;19;20361;-80
2024/02/22 15:16:55;;;;;;;1.20;0.70;;;;;;;;;;7412016;19;20245;-80
2024/02/22 15:19:39;;;;;;;1.13;0.63;;;;;;;;;;7412595;19;20366;-82
2024/02/22 15:22:26;;;;;;;1.00;0.60;;;;;;;;;;7412577;19;19915;-81
2024/02/22 15:25:14;;;;;;;1.27;0.63;;;;;;;;;;7411627;19;19911;-80
2024/02/22 15:27:58;;;;;;;1.10;0.57;;;;;;;;;;7407851;19;20253;-79
2024/02/22 15:30:48;;;;;;;1.25;0.40;;;;;;;;;;7412586;19;20017;-81
2024/02/22 15:33:37;;;;;;;1.15;0.60;;;;;;;;;;7413958;19;19936;-81
2024/02/22 15:36:22;;;;;;;0.90;0.57;;;;;;;;;;7413123;19;19926;-81
2024/02/22 15:39:13;;;;;;;1.10;0.50;;;;;;;;;;7406877;19;19926;-81
2024/02/22 15:41:57;;;;;;;1.92;0.60;;;;;;;;;;7413705;19;20269;-81
2024/02/22 15:44:44;;;;;;;1.13;0.68;;;;;;;;;;7421281;19;19921;-81
2024/02/22 15:47:31;;;;;;;0.90;0.50;;;;;;;;;;7417953;19;19918;-84
2024/02/22 15:50:18;;;;;;;1.05;0.50;;;;;;;;;;7418414;19;19910;-85
2024/02/22 15:53:04;;;;;;;1.05;0.43;;;;;;;;;;7418878;19;19911;-85
2024/02/22 15:55:49;;;;;;;1.38;0.50;;;;;;;;;;7417595;19;19919;-85
2024/02/22 15:58:35;;;;;;;1.00;0.45;;;;;;;;;;7417966;19;19922;-85
2024/02/22 16:01:25;;;;;;;1.13;0.63;;;;;;;;;;7415697;19;19946;-85
2024/02/22 16:04:12;;;;;;;0.90;0.57;;;;;;;;;;7418377;19;19923;-84
2024/02/22 16:07:01;;;;;;;1.13;0.52;;;;;;;;;;7418174;19;19914;-85
2024/02/22 16:09:48;;;;;;;2.22;0.68;;;;;;;;;;7418283;19;20289;-83
2024/02/22 16:12:32;;;;;;;1.02;0.60;;;;;;;;;;7416837;19;19941;-83
2024/02/22 16:15:21;;;;;;;1.30;0.80;;;;;;;;;;7417171;19;19937;-82
2024/02/22 16:18:10;;;;;;;1.20;0.70;;;;;;;;;;7415697;19;19933;-83
2024/02/22 16:20:57;;;;;;;1.27;0.80;;;;;;;;;;7416431;19;19925;-83
2024/02/22 16:23:47;;;;;;;1.13;0.75;;;;;;;;;;7415854;19;19926;-83
2024/02/22 16:26:35;;;;;;;0.80;0.60;;;;;;;;;;7413629;19;20581;-82
2024/02/22 16:29:22;;;;;;;1.67;0.70;;;;;;;;;;7418425;19;19922;-82
2024/02/22 16:32:12;;;;;;;1.70;0.60;;;;;;;;;;7418812;19;20252;-82
2024/02/22 16:34:56;;;;;;;1.27;0.73;;;;;;;;;;7417274;19;20635;-82
2024/02/22 16:37:43;;;;;;;2.85;0.77;;;;;;;;;;7416782;19;20244;-82
2024/02/22 16:40:33;;;;;;;2.58;0.88;;;;;;;;;;7419890;19;19941;-80
2024/02/22 16:43:18;;;;;;;1.13;0.75;;;;;;;;;;7414258;19;19910;-80